Ashfield, Pennsylvania
Current Conditions -  °F | °C
As of 1:51 PM on Friday 21 Nov 2014 (Local Time) from KABE Reporting Station
Clear Clear  
Wind Chill: 26°   Ceiling: Unl
Heat Index: 35°   Visibility: 10mi
Dew Point:   Wind: 15mph
Humidity: 33%   Direction: 300°WNW
Pressure: 30.35"   Gusts: NA
Location:  40.78°N, 75.71°W
Report Text: KABE 211851Z 30013KT 10SM CLR 02/M13 A3035 RMK AO2 PK WND 28026/1810 SLP282 T00171133
Loading
Personal Weather Stations






























Interactive Weather Map New forecast layout! Learn more

10-Day Weather Forecast

Advertisements
Track Severe Weather on mobile